createdAt,value
2018-09-14T00:00:41.006Z,39.57
2018-09-14T00:03:09.283Z,38.33
2018-09-14T00:05:37.580Z,42.33
2018-09-14T00:08:05.838Z,40.80
2018-09-14T00:10:34.100Z,35.20
2018-09-14T00:13:02.305Z,39.60
2018-09-14T00:15:30.554Z,40.03
2018-09-14T00:17:58.813Z,41.43
2018-09-14T00:20:27.092Z,42.97
2018-09-14T00:22:55.315Z,36.60
2018-09-14T00:25:23.621Z,42.83
2018-09-14T00:27:51.911Z,41.60
2018-09-14T00:30:20.168Z,35.23
2018-09-14T00:32:48.458Z,39.10
2018-09-14T00:35:16.769Z,49.90
2018-09-14T00:37:45.028Z,42.93
2018-09-14T00:40:13.425Z,54.33
2018-09-14T00:42:41.731Z,51.23
2018-09-14T00:45:09.987Z,40.80
2018-09-14T00:47:38.225Z,40.20
2018-09-14T00:50:06.642Z,37.93
2018-09-14T00:52:34.929Z,40.77
2018-09-14T00:55:03.334Z,42.27
2018-09-14T00:57:31.656Z,38.87
2018-09-14T00:59:59.936Z,36.73
2018-09-14T01:02:28.222Z,39.83
2018-09-14T01:04:56.535Z,39.93
2018-09-14T01:07:24.806Z,38.37
2018-09-14T01:09:53.066Z,39.10
2018-09-14T01:12:21.360Z,32.73
2018-09-14T01:14:49.615Z,36.53
2018-09-14T01:17:17.911Z,47.07
2018-09-14T01:19:46.138Z,34.23
2018-09-14T01:22:14.398Z,38.03
2018-09-14T01:24:42.640Z,40.90
2018-09-14T01:27:10.892Z,55.13
2018-09-14T01:29:39.208Z,36.50
2018-09-14T01:32:07.444Z,36.07
2018-09-14T01:34:35.711Z,37.97
2018-09-14T01:37:03.999Z,35.87
2018-09-14T01:39:32.249Z,37.67
2018-09-14T01:42:00.550Z,34.77
2018-09-14T01:44:28.820Z,36.00
2018-09-14T01:46:57.090Z,44.13
2018-09-14T01:49:25.401Z,32.93
2018-09-14T01:51:53.654Z,49.50
2018-09-14T01:54:21.947Z,44.80
2018-09-14T02:02:53.903Z,41.70
2018-09-14T02:05:22.231Z,38.17
2018-09-14T02:07:50.561Z,40.20
2018-09-14T02:10:21.888Z,40.47
2018-09-14T02:12:51.158Z,36.40
2018-09-14T02:15:19.534Z,35.90
2018-09-14T02:17:47.977Z,41.87
2018-09-14T02:20:17.964Z,38.37
2018-09-14T02:22:46.644Z,41.10
2018-09-14T02:25:14.967Z,39.10
2018-09-14T02:27:43.318Z,41.50
2018-09-14T02:30:11.777Z,42.90
2018-09-14T02:32:40.197Z,37.83
2018-09-14T02:35:08.506Z,34.90
2018-09-14T02:37:36.886Z,39.63
2018-09-14T02:40:05.199Z,37.10
2018-09-14T02:42:33.575Z,42.80
2018-09-14T02:45:01.964Z,38.47
2018-09-14T02:47:30.315Z,40.50
2018-09-14T02:49:58.654Z,35.20
2018-09-14T02:52:26.975Z,38.13
2018-09-14T02:54:55.379Z,38.53
2018-09-14T02:57:23.761Z,41.80
2018-09-14T02:59:52.095Z,45.07
2018-09-14T03:02:20.443Z,38.50
2018-09-14T03:04:48.758Z,41.43
2018-09-14T03:07:17.336Z,39.40
2018-09-14T03:09:45.620Z,40.80
2018-09-14T03:12:14.761Z,46.37
2018-09-14T03:14:43.254Z,37.37
2018-09-14T03:17:11.648Z,43.87
2018-09-14T03:19:40.060Z,37.57
2018-09-14T03:22:14.685Z,40.77
2018-09-14T03:24:45.414Z,43.73
2018-09-14T03:27:13.797Z,42.83
2018-09-14T03:29:42.059Z,44.70
2018-09-14T03:32:11.068Z,36.33
2018-09-14T03:34:39.561Z,39.53
2018-09-14T03:48:43.683Z,47.30
2018-09-14T03:51:11.978Z,41.53
2018-09-14T03:53:40.221Z,41.20
2018-09-14T03:56:08.459Z,55.80
2018-09-14T03:58:36.733Z,46.63
2018-09-14T04:01:05.071Z,44.23
2018-09-14T04:03:33.346Z,44.60
2018-09-14T04:06:01.616Z,48.60
2018-09-14T04:08:29.879Z,45.37
2018-09-14T04:10:58.199Z,41.10
2018-09-14T04:13:26.480Z,45.70
2018-09-14T04:15:54.758Z,47.07
2018-09-14T04:18:23.139Z,38.43
2018-09-14T04:20:51.438Z,44.10
2018-09-14T04:23:19.730Z,55.77
2018-09-14T04:25:47.993Z,43.20
2018-09-14T04:28:16.319Z,47.20
2018-09-14T04:30:44.594Z,41.80
2018-09-14T04:33:12.848Z,41.57
2018-09-14T04:35:41.090Z,46.03
2018-09-14T04:38:09.431Z,37.27
2018-09-14T04:40:37.648Z,43.33
2018-09-14T04:43:05.901Z,37.40
2018-09-14T04:45:34.192Z,35.93
2018-09-14T04:48:02.551Z,39.57
2018-09-14T04:50:30.781Z,35.73
2018-09-14T04:52:59.026Z,40.17
2018-09-14T04:55:27.287Z,40.43
2018-09-14T04:57:55.692Z,39.90
2018-09-14T05:00:24.080Z,36.10
2018-09-14T05:02:52.348Z,41.13
2018-09-14T05:05:20.683Z,41.10
2018-09-14T05:07:49.071Z,37.57
2018-09-14T05:10:17.467Z,45.67
2018-09-14T05:12:45.750Z,33.70
2018-09-14T05:15:14.033Z,37.53
2018-09-14T05:17:42.303Z,42.07
2018-09-14T05:20:10.566Z,44.60
2018-09-14T05:22:38.870Z,38.70
2018-09-14T05:25:07.393Z,44.17
2018-09-14T05:27:35.638Z,37.53
2018-09-14T05:30:03.985Z,36.10
2018-09-14T05:32:32.276Z,33.93
2018-09-14T05:35:00.540Z,33.27
2018-09-14T05:37:28.943Z,37.67
2018-09-14T05:39:57.211Z,39.17
2018-09-14T05:42:25.491Z,41.33
2018-09-14T05:44:53.781Z,37.93
2018-09-14T05:47:22.035Z,40.20
2018-09-14T05:49:50.320Z,42.90
2018-09-14T05:52:18.583Z,33.63
2018-09-14T05:54:46.882Z,44.00
2018-09-14T05:57:15.159Z,40.60
2018-09-14T05:59:43.443Z,38.33
2018-09-14T06:02:11.787Z,40.63
2018-09-14T06:04:40.076Z,46.20
2018-09-14T06:07:08.358Z,42.93
2018-09-14T06:09:36.725Z,47.57
2018-09-14T06:12:05.012Z,41.30
2018-09-14T06:14:33.548Z,43.60
2018-09-14T06:17:01.818Z,44.10
2018-09-14T06:19:30.067Z,47.00
2018-09-14T06:21:58.443Z,39.30
2018-09-14T06:24:26.826Z,44.20
2018-09-14T06:26:55.118Z,51.23
2018-09-14T06:29:23.478Z,48.63
2018-09-14T06:31:51.766Z,45.47
2018-09-14T06:34:20.160Z,44.80
2018-09-14T06:36:48.492Z,49.37
2018-09-14T06:39:16.711Z,49.87
2018-09-14T06:41:44.958Z,40.97
2018-09-14T06:44:13.298Z,43.40
2018-09-14T06:46:41.575Z,45.83
2018-09-14T06:49:09.949Z,43.00
2018-09-14T06:51:38.872Z,44.03
2018-09-14T06:54:07.810Z,44.83
2018-09-14T06:56:36.036Z,45.50
2018-09-14T06:59:04.411Z,46.10
2018-09-14T07:01:32.654Z,42.43
2018-09-14T07:04:00.944Z,41.63
2018-09-14T07:06:29.412Z,41.13
2018-09-14T07:08:57.676Z,44.67
2018-09-14T07:11:25.999Z,41.67
2018-09-14T07:13:54.170Z,43.83
2018-09-14T07:16:22.431Z,43.43
2018-09-14T07:18:50.699Z,39.53
2018-09-14T07:21:19.043Z,41.50
2018-09-14T07:23:47.343Z,39.73
2018-09-14T07:26:15.599Z,49.47
2018-09-14T07:28:43.886Z,41.17
2018-09-14T07:31:12.131Z,44.50
2018-09-14T07:33:40.385Z,53.47
2018-09-14T07:36:08.711Z,43.53
2018-09-14T07:38:37.010Z,44.60
2018-09-14T07:41:05.756Z,33.97
2018-09-14T07:43:34.015Z,40.13
2018-09-14T07:46:02.262Z,38.93
2018-09-14T07:48:30.560Z,35.40
2018-09-14T07:50:58.805Z,43.03
2018-09-14T07:53:27.140Z,45.40
2018-09-14T07:55:55.471Z,49.23
2018-09-14T07:58:23.737Z,42.03
2018-09-14T08:00:51.975Z,43.60
2018-09-14T08:03:20.220Z,39.13
2018-09-14T08:05:48.505Z,38.00
2018-09-14T08:08:16.784Z,42.80
2018-09-14T08:10:45.020Z,36.40
2018-09-14T08:13:13.319Z,35.63
2018-09-14T08:15:41.544Z,42.13
2018-09-14T08:18:09.786Z,37.60
2018-09-14T08:20:38.015Z,34.77
2018-09-14T08:23:06.311Z,37.20
2018-09-14T08:25:34.561Z,36.93
2018-09-14T08:28:02.788Z,32.53
2018-09-14T08:30:31.049Z,34.00
2018-09-14T08:32:59.330Z,35.70
2018-09-14T08:35:27.590Z,36.60
2018-09-14T08:37:55.812Z,35.10
2018-09-14T08:40:24.083Z,35.70
2018-09-14T08:42:52.325Z,50.20
2018-09-14T08:45:20.600Z,38.50
2018-09-14T08:47:48.869Z,35.30
2018-09-14T08:50:17.098Z,30.50
2018-09-14T08:52:45.376Z,36.97
2018-09-14T08:55:13.619Z,34.90
2018-09-14T08:57:41.902Z,30.83
2018-09-14T09:00:10.276Z,36.80
2018-09-14T09:02:38.638Z,51.83
2018-09-14T09:05:07.031Z,37.50
2018-09-14T09:07:35.288Z,41.07
2018-09-14T09:10:03.522Z,50.93
2018-09-14T09:12:31.768Z,46.43
2018-09-14T09:15:00.052Z,43.03
2018-09-14T09:17:28.295Z,37.70
2018-09-14T09:19:56.582Z,50.40
2018-09-14T09:22:24.743Z,43.77
2018-09-14T09:24:52.991Z,47.13
2018-09-14T09:27:21.239Z,44.50
2018-09-14T09:29:49.485Z,52.13
2018-09-14T09:32:17.747Z,54.53
2018-09-14T09:34:46.542Z,53.00
2018-09-14T09:37:14.766Z,56.73
2018-09-14T09:39:43.041Z,59.23
2018-09-14T09:42:11.356Z,50.83
2018-09-14T09:44:39.599Z,54.53
2018-09-14T09:47:07.887Z,53.17
2018-09-14T09:49:36.203Z,62.73
2018-09-14T09:52:04.422Z,61.80
2018-09-14T09:54:32.868Z,55.30
2018-09-14T09:57:01.183Z,59.90
2018-09-14T09:59:29.490Z,59.10
2018-09-14T10:02:03.159Z,58.97
2018-09-14T10:04:32.448Z,58.63
2018-09-14T10:07:00.792Z,64.03
2018-09-14T10:09:29.102Z,55.90
2018-09-14T10:11:57.354Z,63.70
2018-09-14T10:14:25.627Z,62.77
2018-09-14T10:16:53.872Z,68.80
2018-09-14T10:19:22.107Z,60.53
2018-09-14T10:21:50.483Z,53.53
2018-09-14T10:24:18.755Z,73.97
2018-09-14T10:26:47.069Z,57.00
2018-09-14T10:29:15.263Z,50.30
2018-09-14T10:31:43.533Z,61.00
2018-09-14T10:34:11.764Z,65.73
2018-09-14T10:36:40.115Z,61.63
2018-09-14T10:39:09.734Z,62.63
2018-09-14T10:41:37.994Z,56.03
2018-09-14T10:44:06.285Z,54.17
2018-09-14T10:46:34.518Z,54.57
2018-09-14T10:49:02.795Z,53.77
2018-09-14T10:51:31.167Z,48.17
2018-09-14T10:53:59.471Z,37.90
2018-09-14T10:56:27.768Z,29.07
2018-09-14T10:58:56.038Z,36.80
2018-09-14T11:01:24.275Z,44.53
2018-09-14T11:03:52.562Z,48.63
2018-09-14T11:06:20.891Z,51.60
2018-09-14T11:08:49.188Z,52.23
2018-09-14T11:11:17.452Z,54.93
2018-09-14T11:13:45.767Z,47.23
2018-09-14T11:16:14.694Z,47.30
2018-09-14T11:18:42.991Z,41.10
2018-09-14T11:21:11.239Z,44.77
2018-09-14T11:23:39.502Z,46.13
2018-09-14T11:26:07.785Z,51.17
2018-09-14T11:28:36.057Z,37.83
2018-09-14T11:31:04.352Z,56.80
2018-09-14T11:33:32.598Z,45.60
2018-09-14T11:36:00.870Z,46.57
2018-09-14T11:38:29.187Z,41.73
2018-09-14T11:40:57.367Z,45.10
2018-09-14T11:43:25.615Z,38.33
2018-09-14T11:45:53.991Z,38.83
2018-09-14T11:48:22.303Z,34.13
2018-09-14T11:50:50.563Z,31.60
2018-09-14T11:53:18.911Z,43.97
2018-09-14T11:55:47.271Z,27.83
2018-09-14T11:58:15.547Z,37.37
2018-09-14T12:00:43.846Z,40.27
2018-09-14T12:03:12.134Z,33.70
2018-09-14T12:05:40.367Z,35.73
2018-09-14T12:08:08.993Z,31.93
2018-09-14T12:10:37.259Z,28.63
2018-09-14T12:13:05.534Z,26.67
2018-09-14T12:15:33.805Z,25.37
2018-09-14T12:18:02.067Z,34.90
2018-09-14T12:20:30.406Z,23.20
2018-09-14T12:22:58.758Z,29.93
2018-09-14T12:25:27.014Z,25.53
2018-09-14T12:28:00.191Z,35.83
2018-09-14T12:30:28.447Z,25.93
2018-09-14T12:32:56.723Z,22.33
2018-09-14T12:35:24.988Z,32.40
2018-09-14T12:37:53.268Z,27.80
2018-09-14T12:40:21.513Z,29.77
2018-09-14T12:42:49.762Z,24.50
2018-09-14T12:45:18.055Z,25.80
2018-09-14T12:47:46.299Z,25.47
2018-09-14T12:50:16.222Z,20.07
2018-09-14T12:52:44.505Z,23.20
2018-09-14T12:55:13.136Z,26.70
2018-09-14T12:57:41.433Z,17.53
2018-09-14T13:00:09.840Z,27.20
2018-09-14T13:02:38.131Z,16.70
2018-09-14T13:05:06.544Z,19.07
2018-09-14T13:07:34.840Z,18.20
2018-09-14T13:10:03.160Z,23.43
2018-09-14T13:12:31.459Z,17.47
2018-09-14T13:14:59.845Z,18.07
2018-09-14T13:17:28.076Z,15.67
2018-09-14T13:19:56.344Z,22.03
2018-09-14T13:22:24.663Z,17.70
2018-09-14T13:24:52.971Z,19.20
2018-09-14T13:27:21.384Z,27.50
2018-09-14T13:29:49.708Z,17.83
2018-09-14T13:32:17.949Z,17.67
2018-09-14T13:34:49.369Z,21.03
2018-09-14T13:37:18.636Z,19.27
2018-09-14T13:39:51.308Z,20.33
2018-09-14T13:45:10.420Z,16.50
2018-09-14T13:50:34.140Z,15.53
2018-09-14T13:53:02.565Z,16.63
2018-09-14T13:55:30.830Z,19.07
2018-09-14T13:57:59.272Z,15.70
2018-09-14T14:00:28.496Z,12.30
2018-09-14T14:02:56.993Z,29.23
2018-09-14T14:05:51.163Z,19.33
2018-09-14T14:08:45.415Z,16.33
2018-09-14T14:16:30.871Z,16.53
2018-09-14T14:19:36.366Z,19.33
2018-09-14T14:25:44.612Z,12.40
2018-09-14T14:29:32.276Z,16.97
2018-09-14T14:35:59.742Z,17.40
2018-09-14T15:26:30.650Z,13.40
2018-09-14T15:29:16.635Z,14.33
2018-09-14T15:35:17.288Z,14.90
2018-09-14T15:37:52.263Z,9.67
2018-09-14T15:40:20.545Z,10.40
2018-09-14T15:42:49.246Z,20.47
2018-09-14T15:45:26.534Z,8.93
2018-09-14T15:47:54.981Z,11.37
2018-09-14T15:50:23.354Z,6.60
2018-09-14T15:52:51.655Z,7.37
2018-09-14T15:55:19.925Z,7.33
2018-09-14T15:57:48.180Z,9.33
2018-09-14T16:00:19.184Z,12.67
2018-09-14T16:02:47.671Z,15.67
2018-09-14T16:05:16.318Z,5.70
2018-09-14T16:07:44.681Z,8.73
2018-09-14T16:10:13.026Z,15.90
2018-09-14T16:12:41.572Z,8.90
2018-09-14T16:15:09.903Z,16.07
2018-09-14T16:17:38.255Z,10.43
2018-09-14T16:20:07.248Z,10.80
2018-09-14T16:22:36.079Z,21.03
2018-09-14T16:25:04.904Z,5.30
2018-09-14T16:27:33.299Z,10.27
2018-09-14T16:30:02.038Z,11.53
2018-09-14T16:32:30.774Z,9.77
2018-09-14T16:34:59.053Z,17.33
2018-09-14T16:37:27.453Z,14.57
2018-09-14T16:39:55.756Z,12.03
2018-09-14T16:42:24.108Z,15.77
2018-09-14T16:44:52.388Z,10.50
2018-09-14T16:47:20.783Z,10.27
2018-09-14T16:49:49.263Z,9.70
2018-09-14T16:52:17.606Z,8.97
2018-09-14T16:54:45.970Z,9.33
2018-09-14T16:57:14.398Z,9.20
2018-09-14T16:59:42.678Z,14.67
2018-09-14T17:02:10.988Z,11.57
2018-09-14T17:04:39.298Z,7.83
2018-09-14T17:07:07.644Z,8.67
2018-09-14T17:09:36.276Z,12.07
2018-09-14T17:12:04.759Z,12.50
2018-09-14T17:14:33.131Z,5.23
2018-09-14T17:17:01.539Z,18.13
2018-09-14T17:19:29.903Z,7.40
2018-09-14T17:21:58.250Z,8.27
2018-09-14T17:24:26.630Z,7.50
2018-09-14T17:26:55.126Z,16.93
2018-09-14T17:29:23.482Z,12.93
2018-09-14T17:31:51.763Z,5.17
2018-09-14T17:34:20.063Z,9.60
2018-09-14T17:36:48.404Z,11.30
2018-09-14T17:39:16.744Z,11.77
2018-09-14T17:41:45.092Z,9.20
2018-09-14T17:44:13.394Z,9.70
2018-09-14T17:46:42.034Z,8.50
2018-09-14T17:49:10.372Z,12.07
2018-09-14T17:51:38.683Z,19.77
2018-09-14T17:54:06.990Z,8.67
2018-09-14T17:56:35.576Z,9.30
2018-09-14T17:59:03.858Z,8.33
2018-09-14T18:01:32.105Z,13.13
2018-09-14T18:04:00.412Z,9.03
2018-09-14T18:06:28.642Z,10.73
2018-09-14T18:08:56.907Z,9.10
2018-09-14T18:11:25.183Z,20.00
2018-09-14T18:13:53.426Z,7.63
2018-09-14T18:16:21.735Z,15.10
2018-09-14T18:18:50.010Z,5.40
2018-09-14T18:21:18.293Z,12.53
2018-09-14T18:23:46.780Z,4.10
2018-09-14T18:26:15.683Z,7.70
2018-09-14T18:28:43.950Z,10.10
2018-09-14T18:31:12.319Z,6.20
2018-09-14T18:33:40.786Z,13.53
2018-09-14T18:36:09.271Z,9.93
2018-09-14T18:38:37.581Z,13.20
2018-09-14T18:41:05.871Z,13.53
2018-09-14T18:43:34.256Z,13.97
2018-09-14T18:46:02.625Z,5.83
2018-09-14T18:48:31.037Z,11.53
2018-09-14T18:50:59.316Z,18.80
2018-09-14T18:53:27.659Z,13.03
2018-09-14T18:55:55.911Z,11.57
2018-09-14T18:58:24.318Z,10.53
2018-09-14T19:00:52.614Z,22.13
2018-09-14T19:03:20.933Z,16.87
2018-09-14T19:05:49.217Z,14.27
2018-09-14T19:08:17.524Z,11.87
2018-09-14T19:10:45.810Z,12.07
2018-09-14T19:13:14.079Z,19.27
2018-09-14T19:15:42.355Z,31.37
2018-09-14T19:18:10.968Z,20.10
2018-09-14T19:20:39.259Z,23.30
2018-09-14T19:23:07.515Z,23.73
2018-09-14T19:25:35.843Z,20.20
2018-09-14T19:28:04.181Z,15.83
2018-09-14T19:30:32.483Z,17.33
2018-09-14T19:33:00.996Z,26.10
2018-09-14T19:35:29.217Z,15.43
2018-09-14T19:37:57.483Z,13.93
2018-09-14T19:40:25.750Z,22.73
2018-09-14T19:42:54.351Z,12.17
2018-09-14T19:45:22.694Z,26.27
2018-09-14T19:47:50.973Z,13.23
2018-09-14T19:50:19.369Z,12.33
2018-09-14T19:52:47.533Z,12.17
2018-09-14T19:55:15.886Z,17.90
2018-09-14T19:57:44.627Z,11.67
2018-09-14T20:00:13.178Z,10.90
2018-09-14T20:02:41.552Z,11.97
2018-09-14T20:05:10.352Z,24.30
2018-09-14T20:07:38.917Z,10.87
2018-09-14T20:10:07.495Z,10.20
2018-09-14T20:12:36.587Z,15.43
2018-09-14T20:15:06.377Z,15.80
2018-09-14T20:17:36.039Z,9.50
2018-09-14T20:20:04.989Z,15.77
2018-09-14T20:22:34.592Z,20.20
2018-09-14T20:25:03.035Z,17.67
2018-09-14T20:27:33.623Z,16.97
2018-09-14T20:30:03.452Z,10.90
2018-09-14T20:32:32.139Z,11.07
2018-09-14T20:35:01.236Z,7.57
2018-09-14T20:37:32.153Z,11.67
2018-09-14T20:40:00.748Z,13.93
2018-09-14T20:42:29.964Z,12.73
2018-09-14T20:44:58.429Z,10.20
2018-09-14T20:47:26.716Z,9.63
2018-09-14T20:49:55.034Z,20.30
2018-09-14T20:52:23.270Z,13.80
2018-09-14T20:54:51.534Z,9.80
2018-09-14T20:57:19.838Z,17.10
2018-09-14T20:59:48.134Z,13.00
2018-09-14T21:02:16.427Z,13.10
2018-09-14T21:04:44.675Z,9.00
2018-09-14T21:07:12.931Z,14.50
2018-09-14T21:09:41.235Z,13.77
2018-09-14T21:12:09.499Z,12.97
2018-09-14T21:14:37.793Z,6.47
2018-09-14T21:17:06.059Z,7.97
2018-09-14T21:19:34.308Z,14.67
2018-09-14T21:22:02.598Z,12.60
2018-09-14T21:24:30.860Z,13.30
2018-09-14T21:26:59.125Z,8.43
2018-09-14T21:29:27.425Z,13.93
2018-09-14T21:31:55.716Z,9.80
2018-09-14T21:34:23.926Z,8.80
2018-09-14T21:36:52.288Z,14.00
2018-09-14T21:39:20.523Z,13.10
2018-09-14T21:41:48.858Z,11.80
2018-09-14T21:44:17.083Z,7.20
2018-09-14T21:46:45.336Z,16.40
2018-09-14T21:49:13.635Z,10.03
2018-09-14T21:51:41.904Z,12.87
2018-09-14T21:54:10.234Z,10.20
2018-09-14T21:56:38.538Z,7.03
2018-09-14T21:59:06.762Z,9.33
2018-09-14T22:01:34.995Z,11.20
2018-09-14T22:04:03.257Z,10.73
2018-09-14T22:06:31.486Z,8.90
2018-09-14T22:08:59.752Z,10.37
2018-09-14T22:11:28.009Z,20.50
2018-09-14T22:13:56.248Z,14.70
2018-09-14T22:16:24.508Z,14.97
2018-09-14T22:18:52.737Z,24.53
2018-09-14T22:21:20.980Z,9.47
2018-09-14T22:23:49.220Z,13.80
2018-09-14T22:26:17.474Z,12.50
2018-09-14T22:28:45.717Z,9.53
2018-09-14T22:31:14.059Z,12.00
2018-09-14T22:33:42.286Z,12.50
2018-09-14T22:36:10.831Z,9.53
2018-09-14T22:38:39.092Z,9.10
2018-09-14T22:41:07.354Z,15.20
2018-09-14T22:43:35.659Z,8.00
2018-09-14T22:46:03.902Z,14.43
2018-09-14T22:48:32.180Z,13.20
2018-09-14T22:51:00.462Z,21.23
2018-09-14T22:53:28.698Z,14.90
2018-09-14T22:55:56.927Z,16.37
2018-09-14T22:58:25.185Z,21.33
2018-09-14T23:00:58.697Z,7.77
2018-09-14T23:03:26.938Z,15.73
2018-09-14T23:05:55.162Z,22.63
2018-09-14T23:08:23.400Z,14.53
2018-09-14T23:10:51.666Z,7.10
2018-09-14T23:13:19.890Z,15.33
2018-09-14T23:15:56.267Z,14.33
2018-09-14T23:18:24.668Z,10.00
2018-09-14T23:20:53.017Z,11.07
2018-09-14T23:23:21.264Z,9.77
2018-09-14T23:25:50.416Z,11.37
2018-09-14T23:28:18.855Z,15.80
2018-09-14T23:30:47.142Z,20.27
2018-09-14T23:33:15.416Z,6.20
2018-09-14T23:35:43.700Z,17.77
2018-09-14T23:38:12.004Z,15.30
2018-09-14T23:40:40.247Z,5.70
2018-09-14T23:43:08.790Z,9.70
2018-09-14T23:45:37.173Z,18.53
2018-09-14T23:48:05.447Z,6.67
2018-09-14T23:50:33.697Z,6.83
2018-09-14T23:53:01.990Z,11.93
2018-09-14T23:55:30.282Z,25.40
2018-09-14T23:57:58.529Z,10.33
